Coltman, Idaho
Current Conditions -  °F | °C
As of 8:53 AM on Tuesday 21 Oct 2014 (Local Time) from KIDA Reporting Station
Overcast Overcast  
Wind Chill: 38°   Ceiling: 1400
Heat Index: 47°   Visibility: 10mi
Dew Point: 41°   Wind: 30mph
Humidity: 80%   Direction: 220°SW
Pressure: 29.94"   Gusts: 40mph
Location:  43.498°N, 111.73°W
Report Text: KIDA 211453Z 22026G35KT 10SM BKN014 OVC020 08/05 A2994 RMK AO2 PK WND 21035/1451 RAB20E34 SLP122 P0000 60000 T00830050 53028
Loading
Personal Weather Stations






























Interactive Weather Map
Tropical Storm Tracking
New forecast layout! Learn more

10-Day Weather Forecast

Advertisements
Track Severe Weather on mobile